KHYA/HYA METAR and TAF weather

Enter ICAO airport designator
Station Type Date Time Source
KHYA METAR 2019/06/20 06:56 UTC NOAA

KHYA 200656Z AUTO 15004KT 10SM OVC004 16/14 A2976 RMK AO2 SLP077 T01610144


Station Type Date Time Source
KHYA Decoded METAR 2019/06/20 06:56 UTC NOAA

HYANNIS BARNSTABLE BOARDMN, MA, United States (KHYA) 41-40N 070-16W 22M
Jun 20, 2019 - 02:56 AM EDT / 2019.06.20 0656 UTC
Wind: from the SSE (150 degrees) at 5 MPH (4 KT):0
Visibility: 10 mile(s):0
Sky conditions: overcast
Temperature: 61.0 F (16.1 C)
Dew Point: 57.9 F (14.4 C)
Relative Humidity: 89%
Pressure (altimeter): 29.76 in. Hg (1007 hPa)
ob: KHYA 200656Z AUTO 15004KT 10SM OVC004 16/14 A2976 RMK AO2 SLP077 T01610144
cycle: 7

Station Type Date Time Source
KHYA TAF 2019/06/20 06:24 UTC NOAA

TAF KHYA 200523Z 2006/2106 16006KT P6SM OVC003
FM200800 15005KT 3SM BR OVC003
FM202200 17008KT 1/2SM FG OVC003
FM210000 18008KT 1SM -SHRA BR OVC003

Example: see airport list